»·PEaware :: N504DW KABQ-KAMA

N504DW :: KABQ-KAMA

FLIGHT INFORMATION

Flight Status: Arrived
Operator: Privately registered:
United States
More flights under this callsign
Pilot: Mark H. (209)
Aircraft: CESSNA 550 CITATION 2/S2/BRAVO
(C550)
More flights by this aircraft type
Origin: KABQ Albuquerque Intl Sunport
United States
Destination: KAMA Amarillo Intl
United States
More flights between these airports :: More routes between these airports
Route: +GRZZZ3 TCC V12 PNH
File this flight plan on PilotEdge
Remarks:
Altitude:
(Current/Filed)
25,000ft
Speed:
(Current/Filed)
410kts
Departed: 13-Jul-17 10:07 AM
Arrived: 13-Jul-17 10:57 AM
Distance/Time
Traveled:
241nm/0:50
Distance/Time
To Go:
Arrived

Flight Plot

Page will automatically refresh every two minutes.

Flight plan parsing failed; only flown route is shown


Map Options




Map Legend


Flown Route
Filed Route
Departure Airport
Arrival Airport
Navaid (VOR, NDB)
Fix

Horizontal Profiles

Position Reports

Time Latitude Longitude Heading Altitude Ground
Speed
13-Jul-17 09:49 35.036955 -106.617044 350 5359ft 0kts
13-Jul-17 09:50 35.036955 -106.617044 350 5359ft 0kts
13-Jul-17 09:51 35.036955 -106.617044 350 5359ft 0kts
13-Jul-17 09:52 35.036955 -106.617044 350 5359ft 0kts
13-Jul-17 09:53 35.036955 -106.617044 350 5359ft 0kts
13-Jul-17 09:54 35.036955 -106.617044 350 5359ft 0kts
13-Jul-17 09:55 35.036955 -106.617044 350 5359ft 0kts
13-Jul-17 09:56 35.036955 -106.617044 350 5359ft 0kts
13-Jul-17 09:57 35.036955 -106.617044 350 5359ft 0kts
13-Jul-17 09:58 35.036955 -106.617044 350 5359ft 0kts
13-Jul-17 09:59 35.036955 -106.617044 350 5359ft 0kts
13-Jul-17 10:00 35.036955 -106.617044 350 5359ft 0kts
13-Jul-17 10:01 35.036955 -106.617044 350 5359ft 0kts
13-Jul-17 10:02 35.036955 -106.617044 350 5359ft 0kts
13-Jul-17 10:03 35.036956 -106.617044 350 5359ft 0kts
13-Jul-17 10:04 35.036963 -106.617045 350 5359ft 0kts
13-Jul-17 10:05 35.035550 -106.616701 224 5359ft 22kts
13-Jul-17 10:06 35.031097 -106.622063 223 5359ft 26kts
13-Jul-17 10:07 35.027298 -106.626646 224 5359ft 12kts
13-Jul-17 10:08 35.024169 -106.630514 220 5359ft 13kts
13-Jul-17 10:09 35.022774 -106.631011 133 5359ft 15kts
13-Jul-17 10:10 35.042694 -106.605837 44 6008ft 217kts
13-Jul-17 10:11 35.097577 -106.590890 338 7789ft 219kts
13-Jul-17 10:12 35.158340 -106.603839 1 9415ft 234kts
13-Jul-17 10:13 35.229635 -106.595194 7 11092ft 267kts
13-Jul-17 10:14 35.298477 -106.561515 39 12747ft 295kts
13-Jul-17 10:15 35.348582 -106.474456 73 14340ft 332kts
13-Jul-17 10:16 35.362371 -106.359593 84 15997ft 350kts
13-Jul-17 10:17 35.369736 -106.238435 85 17603ft 363kts
13-Jul-17 10:18 35.376557 -106.113376 85 19208ft 372kts
13-Jul-17 10:19 35.383410 -105.985236 85 20811ft 381kts
13-Jul-17 10:20 35.390308 -105.854337 86 22403ft 393kts
13-Jul-17 10:21 35.397221 -105.717652 86 24022ft 404kts
13-Jul-17 10:22 35.404183 -105.578512 86 25346ft 416kts
13-Jul-17 10:23 35.411318 -105.436450 86 25426ft 417kts
13-Jul-17 10:24 35.407030 -105.295089 97 25434ft 415kts
13-Jul-17 10:25 35.390356 -105.155384 99 25436ft 414kts
13-Jul-17 10:26 35.372318 -105.016180 99 25436ft 414kts
13-Jul-17 10:27 35.354294 -104.877551 99 25436ft 414kts
13-Jul-17 10:28 35.336107 -104.738460 99 25423ft 414kts
13-Jul-17 10:29 35.317795 -104.598969 99 25390ft 414kts
13-Jul-17 10:30 35.299432 -104.459867 99 25104ft 414kts
13-Jul-17 10:31 35.281023 -104.321545 99 23635ft 407kts
13-Jul-17 10:32 35.262939 -104.186799 99 22134ft 396kts
13-Jul-17 10:33 35.245262 -104.056188 98 20637ft 384kts
13-Jul-17 10:34 35.227905 -103.929022 98 19129ft 375kts
13-Jul-17 10:35 35.210779 -103.804389 98 17773ft 367kts
13-Jul-17 10:36 35.193890 -103.682496 98 16788ft 361kts
13-Jul-17 10:37 35.185206 -103.561471 88 16246ft 356kts
13-Jul-17 10:38 35.187811 -103.441033 86 15745ft 353kts
13-Jul-17 10:39 35.191752 -103.321292 86 15242ft 350kts
13-Jul-17 10:40 35.195668 -103.202925 87 14741ft 347kts
13-Jul-17 10:41 35.199432 -103.085635 87 14240ft 344kts
13-Jul-17 10:42 35.203035 -102.969296 88 13425ft 340kts
13-Jul-17 10:43 35.206447 -102.855017 89 12427ft 332kts
13-Jul-17 10:44 35.209660 -102.743542 89 11425ft 324kts
13-Jul-17 10:45 35.212700 -102.634276 88 11004ft 320kts
13-Jul-17 10:46 35.215621 -102.526296 88 10999ft 316kts
13-Jul-17 10:47 35.218415 -102.419596 89 11000ft 315kts
13-Jul-17 10:48 35.219642 -102.316974 90 9788ft 277kts
13-Jul-17 10:49 35.219912 -102.226900 90 9011ft 267kts
13-Jul-17 10:50 35.219974 -102.133893 90 8995ft 278kts
13-Jul-17 10:51 35.226047 -102.039427 73 8626ft 282kts
13-Jul-17 10:52 35.253861 -101.950711 69 7154ft 270kts
13-Jul-17 10:53 35.283294 -101.869827 55 6164ft 253kts
13-Jul-17 10:54 35.328808 -101.806486 49 5990ft 240kts
13-Jul-17 10:55 35.344313 -101.733498 100 6031ft 224kts
13-Jul-17 10:56 35.309981 -101.686159 146 5219ft 178kts
13-Jul-17 10:57 35.273703 -101.664318 182 4234ft 121kts
13-Jul-17 10:58 35.244991 -101.685074 209 3867ft 120kts
13-Jul-17 10:59 35.222395 -101.710998 224 3611ft 42kts
13-Jul-17 11:00 35.217474 -101.708841 124 3611ft 19kts
13-Jul-17 11:01 35.216862 -101.708610 227 3611ft 0kts
13-Jul-17 11:02 35.216862 -101.708610 227 3611ft 0kts
13-Jul-17 11:03 35.216862 -101.708610 227 3611ft 0kts
13-Jul-17 11:04 35.216862 -101.708610 227 3611ft 0kts

Navigation Log

Ident Type
Flight plan parsing failed, navigation log unavailable